Time;durP1;ratioP1;P1;durP2;ratioP2;P2;SDS_P1;SDS_P2;PMS_P1;PMS_P2;Temp;Humidity;BMP_temperature;BMP_pressure;BME280_temperature;BME280_humidity;BME280_pressure;Samples;Min_cycle;Max_cycle;Signal;HPM_P1;HPM_P2
2022/04/17 00:02:08;;;;;;;;;;;4.40;99.90;;;;;;5063318;28;19931;-72
2022/04/17 00:04:35;;;;;;;;;;;4.40;99.90;;;;;;5052935;28;20335;-72
2022/04/17 00:07:06;;;;;;;;;;;4.30;99.90;;;;;;5060940;28;19925;-72
2022/04/17 00:09:38;;;;;;;;;;;4.20;99.90;;;;;;5051535;28;20299;-72
2022/04/17 00:12:05;;;;;;;;;;;4.20;99.90;;;;;;5069917;28;20003;-72
2022/04/17 00:14:37;;;;;;;;;;;4.20;99.90;;;;;;5064358;28;20423;-72
2022/04/17 00:17:09;;;;;;;;;;;4.20;99.90;;;;;;5055764;28;19925;-72
2022/04/17 00:19:41;;;;;;;;;;;4.20;99.90;;;;;;5063079;28;19928;-72
2022/04/17 00:22:13;;;;;;;;;;;4.10;99.90;;;;;;5065298;28;19925;-72
2022/04/17 00:24:44;;;;;;;;;;;4.20;99.90;;;;;;5038922;28;19939;-73
2022/04/17 00:27:16;;;;;;;;;;;4.10;99.90;;;;;;5048720;28;19925;-72
2022/04/17 00:29:47;;;;;;;;;;;4.10;99.90;;;;;;5069653;28;19925;-72
2022/04/17 00:32:19;;;;;;;;;;;4.10;99.90;;;;;;5060496;28;19925;-73
2022/04/17 00:34:51;;;;;;;;;;;4.20;99.90;;;;;;5057481;28;19928;-75
2022/04/17 00:37:22;;;;;;;;;;;4.20;99.90;;;;;;5070172;28;20296;-72
2022/04/17 00:39:54;;;;;;;;;;;4.10;99.90;;;;;;5059057;28;20399;-72
2022/04/17 00:42:25;;;;;;;;;;;4.10;99.90;;;;;;5050676;28;19925;-73
2022/04/17 00:44:52;;;;;;;;;;;4.10;99.90;;;;;;5041587;28;19924;-72
2022/04/17 00:47:24;;;;;;;;;;;4.00;99.90;;;;;;5066722;28;19972;-72
2022/04/17 00:49:50;;;;;;;;;;;4.00;99.90;;;;;;5064777;28;19925;-71
2022/04/17 00:52:20;;;;;;;;;;;4.00;99.90;;;;;;5071713;28;19924;-72
2022/04/17 00:54:47;;;;;;;;;;;4.00;99.90;;;;;;5068453;28;19963;-72
2022/04/17 00:57:19;;;;;;;;;;;4.00;99.90;;;;;;5067283;28;20448;-72
2022/04/17 00:59:46;;;;;;;;;;;3.90;99.90;;;;;;5074541;28;20035;-72
2022/04/17 01:02:18;;;;;;;;;;;3.90;99.90;;;;;;5068619;28;20389;-72
2022/04/17 01:04:50;;;;;;;;;;;3.90;99.90;;;;;;5069301;28;19928;-72
2022/04/17 01:07:22;;;;;;;;;;;3.80;99.90;;;;;;5050615;28;20007;-72
2022/04/17 01:09:55;;;;;;;;;;;3.80;99.90;;;;;;5074031;28;20466;-72
2022/04/17 01:12:26;;;;;;;;;;;3.80;99.90;;;;;;5059869;28;19925;-72
2022/04/17 01:14:58;;;;;;;;;;;3.80;99.90;;;;;;5066464;28;20491;-72
2022/04/17 01:17:30;;;;;;;;;;;3.80;99.90;;;;;;5057877;28;19928;-72
2022/04/17 01:20:02;;;;;;;;;;;3.70;99.90;;;;;;5075192;28;20021;-73
2022/04/17 01:22:29;;;;;;;;;;;3.60;99.90;;;;;;5054753;28;19935;-72
2022/04/17 01:27:51;;;;;;;;;;;3.50;99.90;;;;;;5065414;28;19931;-72
2022/04/17 01:30:17;;;;;;;;;;;3.40;99.90;;;;;;5057738;28;19979;-72
2022/04/17 01:32:49;;;;;;;;;;;3.40;99.90;;;;;;5054556;28;19929;-73
2022/04/17 01:35:20;;;;;;;;;;;3.30;99.90;;;;;;5055158;28;20320;-72
2022/04/17 01:37:50;;;;;;;;;;;3.30;99.90;;;;;;5062741;28;19925;-72
2022/04/17 01:40:16;;;;;;;;;;;3.20;99.90;;;;;;5073345;28;20372;-72
2022/04/17 01:42:48;;;;;;;;;;;3.20;99.90;;;;;;5069327;28;19925;-72
2022/04/17 01:45:20;;;;;;;;;;;3.10;99.90;;;;;;5053719;28;19925;-72
2022/04/17 01:47:51;;;;;;;;;;;3.20;99.90;;;;;;5053160;28;20379;-73
2022/04/17 01:50:24;;;;;;;;;;;3.20;99.90;;;;;;5054513;28;20422;-72
2022/04/17 01:52:50;;;;;;;;;;;3.20;99.90;;;;;;5054043;28;19925;-71
2022/04/17 01:55:22;;;;;;;;;;;3.20;99.90;;;;;;5058113;28;19951;-73
2022/04/17 01:57:53;;;;;;;;;;;3.20;99.90;;;;;;5073129;28;20331;-72
2022/04/17 02:00:25;;;;;;;;;;;3.20;99.90;;;;;;5073136;28;19948;-72
2022/04/17 02:02:57;;;;;;;;;;;3.20;99.90;;;;;;5049562;28;20301;-72
2022/04/17 02:05:28;;;;;;;;;;;3.10;99.90;;;;;;5052521;28;20300;-73
2022/04/17 02:07:55;;;;;;;;;;;3.10;99.90;;;;;;5056220;28;19929;-72
2022/04/17 02:10:26;;;;;;;;;;;3.00;99.90;;;;;;5054158;28;19925;-72
2022/04/17 02:13:00;;;;;;;;;;;3.00;99.90;;;;;;5053644;28;20432;-73
2022/04/17 02:15:33;;;;;;;;;;;3.00;99.90;;;;;;5066793;28;20415;-72
2022/04/17 02:18:05;;;;;;;;;;;2.90;99.90;;;;;;5064339;28;19936;-72
2022/04/17 02:20:37;;;;;;;;;;;2.90;99.90;;;;;;5072892;28;19932;-73
2022/04/17 02:23:08;;;;;;;;;;;2.90;99.90;;;;;;5073549;28;19925;-73
2022/04/17 02:25:40;;;;;;;;;;;2.80;99.90;;;;;;5062449;28;19925;-72
2022/04/17 02:28:15;;;;;;;;;;;2.80;99.90;;;;;;5065722;28;19932;-72
2022/04/17 02:30:42;;;;;;;;;;;2.80;99.90;;;;;;5066409;28;19933;-73
2022/04/17 02:33:13;;;;;;;;;;;2.80;99.90;;;;;;5051862;28;19925;-73
2022/04/17 02:35:45;;;;;;;;;;;2.80;99.90;;;;;;5059764;28;19932;-73
2022/04/17 02:38:17;;;;;;;;;;;2.70;99.90;;;;;;5061187;28;19925;-73
2022/04/17 02:40:48;;;;;;;;;;;2.70;99.90;;;;;;5067551;28;19925;-73
2022/04/17 02:43:20;;;;;;;;;;;2.60;99.90;;;;;;5051719;28;19925;-73
2022/04/17 02:45:52;;;;;;;;;;;2.60;99.90;;;;;;5070856;28;19924;-73
2022/04/17 02:48:19;;;;;;;;;;;2.60;99.90;;;;;;5066520;28;19924;-73
2022/04/17 02:50:47;;;;;;;;;;;2.60;99.90;;;;;;5072122;28;19925;-73
2022/04/17 02:53:20;;;;;;;;;;;2.60;99.90;;;;;;5055901;28;19925;-73
2022/04/17 02:55:52;;;;;;;;;;;2.60;99.90;;;;;;5065764;28;19928;-73
2022/04/17 02:58:24;;;;;;;;;;;2.60;99.90;;;;;;5036231;28;20403;-73
2022/04/17 03:06:36;;;;;;;;;;;2.50;99.90;;;;;;5052593;28;20301;-73
2022/04/17 03:09:08;;;;;;;;;;;2.50;99.90;;;;;;5071626;28;19924;-73
2022/04/17 03:11:39;;;;;;;;;;;2.50;99.90;;;;;;5055844;28;19931;-73
2022/04/17 03:14:11;;;;;;;;;;;2.40;99.90;;;;;;5068470;28;19963;-73
2022/04/17 03:16:43;;;;;;;;;;;2.40;99.90;;;;;;5050064;28;19934;-73
2022/04/17 03:19:09;;;;;;;;;;;2.40;99.90;;;;;;5052094;28;20373;-73
2022/04/17 03:21:41;;;;;;;;;;;2.30;99.90;;;;;;5071657;28;19928;-73
2022/04/17 03:24:08;;;;;;;;;;;2.30;99.90;;;;;;5064072;28;20676;-73
2022/04/17 03:26:41;;;;;;;;;;;2.30;99.90;;;;;;5066085;28;20345;-73
2022/04/17 03:29:12;;;;;;;;;;;2.20;99.90;;;;;;5068650;28;19928;-73
2022/04/17 03:31:44;;;;;;;;;;;2.20;99.90;;;;;;5053010;28;19925;-73
2022/04/17 03:34:16;;;;;;;;;;;2.20;99.90;;;;;;5067346;28;20388;-73
2022/04/17 03:36:48;;;;;;;;;;;2.10;99.90;;;;;;5062037;28;19932;-73
2022/04/17 03:39:19;;;;;;;;;;;2.10;99.90;;;;;;5053005;28;19940;-73
2022/04/17 03:41:51;;;;;;;;;;;2.10;99.90;;;;;;5069423;28;19925;-73
2022/04/17 03:44:26;;;;;;;;;;;2.10;99.90;;;;;;5054958;28;19933;-73
2022/04/17 03:46:57;;;;;;;;;;;2.00;99.90;;;;;;5051570;28;20289;-73
2022/04/17 03:49:29;;;;;;;;;;;2.00;99.90;;;;;;5070391;28;20027;-73
2022/04/17 03:52:01;;;;;;;;;;;2.00;99.90;;;;;;5067634;28;19975;-73
2022/04/17 03:54:32;;;;;;;;;;;2.00;99.90;;;;;;5058651;28;19925;-73
2022/04/17 03:57:04;;;;;;;;;;;2.00;99.90;;;;;;5053515;28;20197;-73
2022/04/17 03:59:36;;;;;;;;;;;2.00;99.90;;;;;;5071427;28;19925;-73
2022/04/17 04:02:08;;;;;;;;;;;2.00;99.90;;;;;;5055323;28;20381;-73
2022/04/17 04:04:39;;;;;;;;;;;1.90;99.90;;;;;;5066769;28;20308;-73
2022/04/17 04:07:11;;;;;;;;;;;1.90;99.90;;;;;;5070515;28;19931;-73
2022/04/17 04:09:43;;;;;;;;;;;1.90;99.90;;;;;;5072386;28;20308;-73
2022/04/17 04:12:14;;;;;;;;;;;1.90;99.90;;;;;;5062255;28;19948;-73
2022/04/17 04:14:41;;;;;;;;;;;1.80;99.90;;;;;;5067833;28;19924;-73
2022/04/17 04:17:12;;;;;;;;;;;1.80;99.90;;;;;;5052352;28;19925;-73
2022/04/17 04:19:44;;;;;;;;;;;1.80;99.90;;;;;;5051235;28;19948;-73
2022/04/17 04:22:16;;;;;;;;;;;1.80;99.90;;;;;;5051007;28;19931;-73
2022/04/17 04:24:48;;;;;;;;;;;1.80;99.90;;;;;;5064884;28;20026;-73
2022/04/17 04:30:10;;;;;;;;;;;1.70;99.90;;;;;;5050873;28;20372;-73
2022/04/17 04:32:52;;;;;;;;;;;1.70;99.90;;;;;;5067333;28;19925;-73
2022/04/17 04:35:26;;;;;;;;;;;1.70;99.90;;;;;;5043491;28;19929;-73
2022/04/17 04:38:00;;;;;;;;;;;1.70;99.90;;;;;;5051709;28;20043;-73
2022/04/17 04:40:29;;;;;;;;;;;1.70;99.90;;;;;;5071025;28;20377;-73
2022/04/17 04:43:01;;;;;;;;;;;1.70;99.90;;;;;;5071809;28;20325;-73
2022/04/17 04:51:13;;;;;;;;;;;1.60;99.90;;;;;;5060359;28;20059;-73
2022/04/17 04:53:45;;;;;;;;;;;1.60;99.90;;;;;;5052166;28;19951;-73
2022/04/17 04:56:17;;;;;;;;;;;1.60;99.90;;;;;;5066358;28;19932;-73
2022/04/17 04:58:48;;;;;;;;;;;1.60;99.90;;;;;;5067368;28;19925;-73
2022/04/17 05:01:20;;;;;;;;;;;1.60;99.90;;;;;;5066123;28;20019;-73
2022/04/17 05:03:52;;;;;;;;;;;1.60;99.90;;;;;;5067846;28;19935;-73
2022/04/17 05:06:23;;;;;;;;;;;1.70;99.90;;;;;;5070500;28;20420;-73
2022/04/17 05:08:55;;;;;;;;;;;1.70;99.90;;;;;;5065961;28;19928;-73
2022/04/17 05:11:26;;;;;;;;;;;1.70;99.90;;;;;;5061570;28;19924;-73
2022/04/17 05:13:58;;;;;;;;;;;1.70;99.90;;;;;;5051420;28;19939;-73
2022/04/17 05:16:30;;;;;;;;;;;1.60;99.90;;;;;;5041136;28;20334;-73
2022/04/17 05:22:02;;;;;;;;;;;1.40;99.90;;;;;;5040344;28;19925;-73
2022/04/17 05:24:29;;;;;;;;;;;1.30;99.90;;;;;;5055671;28;20011;-73
2022/04/17 05:27:01;;;;;;;;;;;1.30;99.90;;;;;;5082177;28;19925;-73
2022/04/17 05:29:32;;;;;;;;;;;1.30;99.90;;;;;;5061240;28;19930;-73
2022/04/17 05:32:04;;;;;;;;;;;1.40;99.90;;;;;;5070062;28;19928;-73
2022/04/17 05:34:36;;;;;;;;;;;1.50;99.90;;;;;;5063809;28;19932;-72
2022/04/17 05:37:03;;;;;;;;;;;1.60;99.90;;;;;;5068389;28;20388;-73
2022/04/17 05:39:35;;;;;;;;;;;1.70;99.90;;;;;;5069982;28;19932;-73
2022/04/17 05:42:07;;;;;;;;;;;1.80;99.90;;;;;;5057835;28;20035;-73
2022/04/17 05:44:37;;;;;;;;;;;2.00;99.90;;;;;;5060737;28;19931;-73
2022/04/17 05:47:09;;;;;;;;;;;2.00;99.90;;;;;;5065001;28;19971;-73
2022/04/17 05:49:41;;;;;;;;;;;2.10;99.90;;;;;;5057985;28;19947;-73
2022/04/17 05:52:13;;;;;;;;;;;2.20;99.90;;;;;;5073429;28;19931;-73
2022/04/17 05:54:44;;;;;;;;;;;2.30;99.90;;;;;;5067566;28;19965;-73
2022/04/17 05:57:16;;;;;;;;;;;2.30;99.90;;;;;;5074775;28;19931;-73
2022/04/17 05:59:47;;;;;;;;;;;2.40;99.90;;;;;;5073682;28;20015;-73
2022/04/17 06:02:15;;;;;;;;;;;2.50;99.90;;;;;;5073142;28;19935;-73
2022/04/17 06:04:47;;;;;;;;;;;2.60;99.90;;;;;;5060005;28;19928;-73
2022/04/17 06:07:23;;;;;;;;;;;2.70;99.90;;;;;;5055974;28;19928;-73
2022/04/17 06:09:55;;;;;;;;;;;2.70;99.90;;;;;;5073551;28;20389;-73
2022/04/17 06:12:27;;;;;;;;;;;2.80;99.90;;;;;;5053330;28;19925;-73
2022/04/17 06:14:58;;;;;;;;;;;2.80;99.90;;;;;;5054832;28;20332;-73
2022/04/17 06:17:37;;;;;;;;;;;2.90;99.90;;;;;;5073195;28;19932;-73
2022/04/17 06:20:10;;;;;;;;;;;3.00;99.90;;;;;;5057349;28;20392;-73
2022/04/17 06:22:42;;;;;;;;;;;3.00;99.90;;;;;;5073064;28;19928;-73
2022/04/17 06:25:14;;;;;;;;;;;3.10;99.90;;;;;;5065187;28;19925;-73
2022/04/17 06:27:42;;;;;;;;;;;3.20;99.90;;;;;;5053097;28;19936;-73
2022/04/17 06:30:13;;;;;;;;;;;3.30;99.90;;;;;;5055881;28;19928;-73
2022/04/17 06:32:45;;;;;;;;;;;3.30;99.90;;;;;;5072814;28;19928;-73
2022/04/17 06:35:17;;;;;;;;;;;3.40;99.90;;;;;;5068693;28;19925;-73
2022/04/17 06:37:48;;;;;;;;;;;3.50;99.90;;;;;;5070298;28;19924;-73
2022/04/17 06:40:24;;;;;;;;;;;3.60;99.90;;;;;;5072825;28;19925;-73
2022/04/17 06:42:57;;;;;;;;;;;3.80;99.90;;;;;;5073640;28;19932;-73
2022/04/17 06:45:28;;;;;;;;;;;3.90;99.90;;;;;;5055076;28;20281;-73
2022/04/17 06:47:55;;;;;;;;;;;4.00;99.90;;;;;;5072697;28;19935;-73
2022/04/17 06:50:27;;;;;;;;;;;4.10;99.90;;;;;;5072792;28;20314;-73
2022/04/17 06:53:00;;;;;;;;;;;4.30;99.90;;;;;;5038222;28;19936;-73
2022/04/17 06:55:26;;;;;;;;;;;4.40;99.90;;;;;;5069136;28;19925;-73
2022/04/17 06:57:58;;;;;;;;;;;4.50;99.90;;;;;;5072338;28;19924;-73
2022/04/17 07:00:29;;;;;;;;;;;4.60;99.90;;;;;;5054027;28;20487;-73
2022/04/17 07:03:01;;;;;;;;;;;4.80;99.90;;;;;;5056596;28;19925;-73
2022/04/17 07:05:33;;;;;;;;;;;4.90;99.90;;;;;;5068645;28;19924;-76
2022/04/17 07:08:05;;;;;;;;;;;5.00;99.90;;;;;;5050956;28;20504;-73
2022/04/17 07:10:37;;;;;;;;;;;5.10;99.90;;;;;;5065133;28;19928;-73
2022/04/17 07:13:05;;;;;;;;;;;5.20;99.90;;;;;;5072521;28;19978;-73
2022/04/17 07:15:36;;;;;;;;;;;5.30;99.90;;;;;;5054638;28;19924;-73
2022/04/17 07:18:08;;;;;;;;;;;5.50;99.90;;;;;;5068496;28;20408;-73
2022/04/17 07:20:40;;;;;;;;;;;5.60;99.90;;;;;;5067931;28;19932;-72
2022/04/17 07:23:11;;;;;;;;;;;5.70;99.90;;;;;;5062656;28;19959;-73
2022/04/17 07:25:38;;;;;;;;;;;5.90;99.90;;;;;;5066789;28;19936;-73
2022/04/17 07:28:12;;;;;;;;;;;6.00;99.90;;;;;;5060972;28;19924;-73
2022/04/17 07:30:43;;;;;;;;;;;6.10;99.90;;;;;;5061657;28;20027;-73
2022/04/17 07:33:17;;;;;;;;;;;6.20;99.90;;;;;;5056159;28;19929;-73
2022/04/17 07:35:48;;;;;;;;;;;6.30;99.90;;;;;;5050944;28;19931;-72
2022/04/17 07:38:20;;;;;;;;;;;6.40;99.90;;;;;;5066579;28;19932;-75
2022/04/17 07:40:52;;;;;;;;;;;6.50;99.90;;;;;;5060109;28;19931;-74
2022/04/17 07:43:24;;;;;;;;;;;6.60;99.90;;;;;;5070911;28;19929;-72
2022/04/17 07:45:56;;;;;;;;;;;6.80;99.90;;;;;;5066245;28;19931;-73
2022/04/17 07:48:27;;;;;;;;;;;6.90;99.90;;;;;;5043500;28;19924;-73
2022/04/17 07:50:59;;;;;;;;;;;7.10;99.90;;;;;;5071074;28;19931;-72
2022/04/17 07:53:31;;;;;;;;;;;7.20;99.90;;;;;;5045288;28;19925;-73
2022/04/17 07:55:57;;;;;;;;;;;7.30;99.90;;;;;;5068543;28;19931;-73
2022/04/17 07:58:35;;;;;;;;;;;7.40;99.90;;;;;;5065099;28;19925;-73
2022/04/17 08:01:11;;;;;;;;;;;7.40;99.90;;;;;;5065726;28;19932;-73
2022/04/17 08:06:10;;;;;;;;;;;7.60;99.90;;;;;;5065638;28;19925;-73
2022/04/17 08:08:37;;;;;;;;;;;7.70;99.90;;;;;;5062719;28;20442;-73
2022/04/17 08:11:10;;;;;;;;;;;7.70;99.90;;;;;;5045873;28;19931;-73
2022/04/17 08:13:42;;;;;;;;;;;7.80;98.60;;;;;;5051634;28;19925;-72
2022/04/17 08:16:14;;;;;;;;;;;7.90;97.40;;;;;;5067454;28;19924;-73
2022/04/17 08:18:45;;;;;;;;;;;8.00;98.60;;;;;;5041051;28;20328;-73
2022/04/17 08:21:12;;;;;;;;;;;8.10;98.90;;;;;;5070916;28;20016;-72
2022/04/17 08:23:43;;;;;;;;;;;8.20;98.00;;;;;;5067750;28;19925;-73
2022/04/17 08:26:15;;;;;;;;;;;8.20;97.10;;;;;;5063695;28;19929;-73
2022/04/17 08:28:42;;;;;;;;;;;8.20;96.30;;;;;;5050115;28;19925;-73
2022/04/17 08:31:13;;;;;;;;;;;8.30;96.80;;;;;;5071990;28;20494;-73
2022/04/17 08:33:45;;;;;;;;;;;8.30;97.60;;;;;;5061981;28;19928;-73
2022/04/17 08:36:17;;;;;;;;;;;8.50;96.50;;;;;;5059144;28;19924;-73
2022/04/17 08:38:48;;;;;;;;;;;8.50;96.40;;;;;;5042407;28;19925;-72
2022/04/17 08:41:16;;;;;;;;;;;8.70;96.50;;;;;;5055678;28;19928;-72
2022/04/17 08:43:45;;;;;;;;;;;8.80;95.70;;;;;;5050440;28;19925;-73
2022/04/17 08:46:16;;;;;;;;;;;8.90;95.60;;;;;;5087230;28;19928;-73
2022/04/17 08:48:43;;;;;;;;;;;9.00;95.60;;;;;;5052484;28;19925;-72
2022/04/17 08:51:15;;;;;;;;;;;9.00;94.60;;;;;;5071061;28;20377;-73
2022/04/17 08:53:48;;;;;;;;;;;9.10;94.00;;;;;;5073628;28;19929;-73
2022/04/17 08:56:20;;;;;;;;;;;9.20;93.40;;;;;;5065476;28;19935;-73
2022/04/17 08:58:52;;;;;;;;;;;9.20;94.00;;;;;;5062776;28;19925;-73
2022/04/17 09:01:24;;;;;;;;;;;9.30;94.10;;;;;;5078337;28;20299;-73
2022/04/17 09:03:55;;;;;;;;;;;9.40;93.10;;;;;;5069464;28;19933;-72
2022/04/17 09:06:27;;;;;;;;;;;9.60;92.80;;;;;;5074811;28;19959;-72
2022/04/17 09:09:00;;;;;;;;;;;9.70;91.70;;;;;;5069304;28;20410;-73
2022/04/17 09:11:33;;;;;;;;;;;9.80;92.80;;;;;;5047393;28;20588;-73
2022/04/17 09:14:05;;;;;;;;;;;9.90;92.00;;;;;;5068465;22;19929;-72
2022/04/17 09:16:38;;;;;;;;;;;10.10;92.50;;;;;;5051375;28;20434;-73
2022/04/17 09:19:14;;;;;;;;;;;10.20;90.60;;;;;;5049790;28;20323;-73
2022/04/17 09:21:53;;;;;;;;;;;10.30;91.50;;;;;;5057116;28;19929;-73
2022/04/17 09:24:24;;;;;;;;;;;10.40;87.80;;;;;;5033336;28;19925;-72
2022/04/17 09:26:57;;;;;;;;;;;10.50;90.00;;;;;;5030451;28;20352;-73
2022/04/17 09:29:29;;;;;;;;;;;10.60;85.70;;;;;;5034984;28;19929;-73
2022/04/17 09:32:00;;;;;;;;;;;10.70;87.00;;;;;;5013921;28;19933;-72
2022/04/17 09:34:42;;;;;;;;;;;10.80;86.70;;;;;;5030325;28;19929;-72
2022/04/17 09:37:15;;;;;;;;;;;10.90;82.00;;;;;;5023890;28;19932;-73
2022/04/17 09:39:48;;;;;;;;;;;10.90;79.60;;;;;;5022650;28;19929;-73
2022/04/17 09:42:20;;;;;;;;;;;11.00;79.80;;;;;;5033456;28;19925;-73
2022/04/17 09:44:47;;;;;;;;;;;11.10;81.20;;;;;;5032285;28;19929;-72
2022/04/17 09:47:20;;;;;;;;;;;11.10;81.20;;;;;;5033402;28;20008;-73
2022/04/17 09:50:02;;;;;;;;;;;11.20;79.30;;;;;;5032962;28;19925;-73
2022/04/17 09:52:31;;;;;;;;;;;11.20;79.70;;;;;;5033285;28;19925;-73
2022/04/17 09:54:59;;;;;;;;;;;11.30;80.30;;;;;;5032099;28;19925;-73
2022/04/17 09:57:32;;;;;;;;;;;11.40;77.50;;;;;;5034282;28;20320;-72
2022/04/17 10:00:18;;;;;;;;;;;11.50;78.10;;;;;;5045826;28;19929;-73
2022/04/17 10:02:50;;;;;;;;;;;11.50;77.80;;;;;;5029685;28;19925;-73
2022/04/17 10:05:22;;;;;;;;;;;11.60;79.10;;;;;;5034550;28;20440;-73
2022/04/17 10:07:50;;;;;;;;;;;11.70;78.60;;;;;;5029554;28;19929;-73
2022/04/17 10:10:22;;;;;;;;;;;11.80;78.80;;;;;;5031819;28;19931;-72
2022/04/17 10:12:54;;;;;;;;;;;11.90;77.80;;;;;;5033681;28;20013;-73
2022/04/17 10:15:20;;;;;;;;;;;12.00;76.60;;;;;;5031910;28;19932;-73
2022/04/17 10:17:53;;;;;;;;;;;12.10;75.60;;;;;;5029891;28;19925;-73
2022/04/17 10:20:20;;;;;;;;;;;12.20;76.00;;;;;;5034471;28;19929;-72
2022/04/17 10:22:57;;;;;;;;;;;12.20;76.90;;;;;;5025992;28;20279;-73
2022/04/17 10:25:31;;;;;;;;;;;12.30;74.20;;;;;;5032659;28;19926;-73
2022/04/17 10:28:04;;;;;;;;;;;12.30;72.00;;;;;;5033575;28;19988;-72
2022/04/17 10:30:57;;;;;;;;;;;12.40;70.90;;;;;;5031339;28;19925;-72
2022/04/17 10:33:32;;;;;;;;;;;12.50;68.00;;;;;;5032099;28;19932;-72
2022/04/17 10:36:11;;;;;;;;;;;12.50;66.90;;;;;;5045564;28;19925;-73
2022/04/17 10:38:45;;;;;;;;;;;12.60;69.50;;;;;;5031070;28;19941;-73
2022/04/17 10:41:17;;;;;;;;;;;12.60;70.40;;;;;;5032818;28;19929;-73
2022/04/17 10:43:50;;;;;;;;;;;12.70;67.70;;;;;;5011648;28;19925;-72
2022/04/17 10:46:21;;;;;;;;;;;12.80;66.70;;;;;;5032354;28;19925;-73
2022/04/17 10:48:55;;;;;;;;;;;12.90;67.00;;;;;;5016705;28;19925;-73
2022/04/17 10:51:29;;;;;;;;;;;12.90;67.40;;;;;;5033461;28;19925;-72
2022/04/17 10:54:03;;;;;;;;;;;13.00;66.10;;;;;;5019970;28;19932;-73
2022/04/17 10:56:38;;;;;;;;;;;12.90;67.10;;;;;;5014206;28;19925;-72
2022/04/17 10:59:17;;;;;;;;;;;12.90;64.70;;;;;;5012231;28;19929;-73
2022/04/17 11:01:59;;;;;;;;;;;12.90;65.40;;;;;;5006034;28;19925;-73
2022/04/17 11:04:36;;;;;;;;;;;13.00;66.70;;;;;;5009441;28;19936;-72
2022/04/17 11:07:09;;;;;;;;;;;13.10;65.50;;;;;;5011984;28;20717;-72
2022/04/17 11:09:44;;;;;;;;;;;13.20;68.60;;;;;;5000441;28;19932;-73
2022/04/17 11:12:19;;;;;;;;;;;13.20;66.10;;;;;;4996236;28;19925;-72
2022/04/17 11:14:56;;;;;;;;;;;13.20;66.80;;;;;;5011859;28;19929;-73
2022/04/17 11:17:32;;;;;;;;;;;13.30;67.60;;;;;;5013274;28;19926;-73
2022/04/17 11:20:04;;;;;;;;;;;13.30;66.60;;;;;;5000845;28;19926;-73
2022/04/17 11:22:37;;;;;;;;;;;13.40;68.40;;;;;;5011832;28;20282;-73
2022/04/17 11:25:12;;;;;;;;;;;13.40;67.70;;;;;;5025925;28;20317;-73
2022/04/17 11:27:50;;;;;;;;;;;13.50;69.10;;;;;;5011759;28;19926;-72
2022/04/17 11:30:22;;;;;;;;;;;13.60;64.60;;;;;;4996369;28;20028;-73
2022/04/17 11:32:55;;;;;;;;;;;13.70;67.40;;;;;;5011575;28;19929;-73
2022/04/17 11:35:27;;;;;;;;;;;13.80;68.70;;;;;;5003154;28;19932;-72
2022/04/17 11:38:03;;;;;;;;;;;13.80;65.60;;;;;;5027552;28;19926;-73
2022/04/17 11:40:36;;;;;;;;;;;13.80;63.50;;;;;;5027290;28;19937;-73
2022/04/17 11:43:12;;;;;;;;;;;13.70;66.70;;;;;;5005918;28;19930;-72
2022/04/17 11:45:45;;;;;;;;;;;13.80;66.20;;;;;;5013842;28;19926;-73
2022/04/17 11:48:18;;;;;;;;;;;13.80;64.20;;;;;;5008104;28;19933;-72
2022/04/17 11:50:54;;;;;;;;;;;13.80;63.40;;;;;;5011634;28;20343;-72
2022/04/17 11:53:21;;;;;;;;;;;13.80;65.50;;;;;;5010987;28;19925;-73
2022/04/17 11:55:53;;;;;;;;;;;13.80;65.40;;;;;;5024351;28;20494;-72
2022/04/17 11:58:25;;;;;;;;;;;13.80;63.90;;;;;;5012400;28;20020;-72
2022/04/17 12:00:57;;;;;;;;;;;13.90;61.40;;;;;;5012195;28;19925;-72
2022/04/17 12:03:34;;;;;;;;;;;13.90;61.50;;;;;;5008522;28;19936;-73
2022/04/17 12:06:07;;;;;;;;;;;13.90;62.50;;;;;;5024648;28;19932;-73
2022/04/17 12:08:40;;;;;;;;;;;14.10;59.90;;;;;;5010360;28;20377;-72
2022/04/17 12:11:12;;;;;;;;;;;14.10;58.80;;;;;;5009379;28;19926;-72
2022/04/17 12:13:43;;;;;;;;;;;14.20;62.30;;;;;;4991929;28;19936;-72
2022/04/17 12:16:15;;;;;;;;;;;14.20;62.20;;;;;;5008272;28;19925;-73
2022/04/17 12:18:54;;;;;;;;;;;14.40;59.30;;;;;;5007316;28;20401;-72
2022/04/17 12:21:29;;;;;;;;;;;14.40;58.10;;;;;;5009857;28;20230;-72
2022/04/17 12:24:01;;;;;;;;;;;14.40;57.90;;;;;;5009304;28;20297;-73
2022/04/17 12:26:33;;;;;;;;;;;14.50;59.30;;;;;;4997802;28;19929;-72
2022/04/17 12:29:05;;;;;;;;;;;14.50;57.50;;;;;;5009553;28;19948;-72
2022/04/17 12:31:33;;;;;;;;;;;14.50;59.90;;;;;;5005159;28;19930;-72
2022/04/17 12:34:09;;;;;;;;;;;14.50;58.30;;;;;;5010608;28;19925;-73
2022/04/17 12:36:42;;;;;;;;;;;14.40;58.30;;;;;;5008768;28;19932;-72
2022/04/17 12:39:09;;;;;;;;;;;14.40;59.40;;;;;;5010691;28;19935;-73
2022/04/17 12:41:42;;;;;;;;;;;14.30;59.40;;;;;;5009511;28;19926;-73
2022/04/17 12:44:13;;;;;;;;;;;14.30;59.40;;;;;;5009385;28;20423;-73
2022/04/17 12:46:46;;;;;;;;;;;14.40;62.00;;;;;;5020556;28;20301;-73
2022/04/17 12:49:17;;;;;;;;;;;14.40;59.90;;;;;;5003724;28;19948;-77
2022/04/17 12:51:56;;;;;;;;;;;14.50;59.10;;;;;;5002040;28;20408;-73
2022/04/17 12:54:31;;;;;;;;;;;14.60;58.90;;;;;;5002516;28;19940;-72
2022/04/17 12:57:03;;;;;;;;;;;14.70;59.30;;;;;;5027592;28;19940;-72
2022/04/17 12:59:41;;;;;;;;;;;14.80;59.60;;;;;;5012003;28;20020;-73
2022/04/17 13:02:17;;;;;;;;;;;14.90;60.50;;;;;;5004758;28;20321;-73
2022/04/17 13:04:45;;;;;;;;;;;14.90;58.70;;;;;;5010168;28;19926;-73
2022/04/17 13:07:13;;;;;;;;;;;15.00;57.90;;;;;;5011927;28;19926;-74
2022/04/17 13:09:50;;;;;;;;;;;15.00;59.50;;;;;;5011752;28;19926;-73
2022/04/17 13:12:30;;;;;;;;;;;15.00;59.50;;;;;;5011737;28;19930;-73
2022/04/17 13:15:06;;;;;;;;;;;15.20;57.10;;;;;;5009266;28;19929;-73
2022/04/17 13:17:47;;;;;;;;;;;15.20;55.60;;;;;;5011445;28;19933;-73
2022/04/17 13:20:19;;;;;;;;;;;15.20;55.70;;;;;;5009337;28;20036;-73
2022/04/17 13:22:51;;;;;;;;;;;15.10;56.60;;;;;;5012970;28;20388;-73
2022/04/17 13:25:23;;;;;;;;;;;15.00;56.80;;;;;;5010920;28;19925;-73
2022/04/17 13:27:54;;;;;;;;;;;15.00;57.80;;;;;;5012056;28;19936;-73
2022/04/17 13:30:26;;;;;;;;;;;15.00;59.00;;;;;;5015374;28;20452;-73
2022/04/17 13:32:57;;;;;;;;;;;15.20;59.60;;;;;;4997250;28;19932;-73
2022/04/17 13:35:29;;;;;;;;;;;15.40;59.50;;;;;;5014700;28;19936;-73
2022/04/17 13:38:13;;;;;;;;;;;15.50;59.30;;;;;;4998160;28;19949;-72
2022/04/17 13:40:39;;;;;;;;;;;15.60;57.40;;;;;;5013928;28;19936;-73
2022/04/17 13:43:11;;;;;;;;;;;15.60;56.60;;;;;;4996621;28;19932;-73
2022/04/17 13:45:39;;;;;;;;;;;15.70;57.40;;;;;;5014428;28;20485;-73
2022/04/17 13:48:10;;;;;;;;;;;15.80;57.20;;;;;;5014333;28;19937;-73
2022/04/17 13:50:42;;;;;;;;;;;15.80;56.00;;;;;;5014686;28;19930;-73
2022/04/17 13:53:13;;;;;;;;;;;15.80;54.10;;;;;;5011720;28;19940;-73
2022/04/17 13:55:45;;;;;;;;;;;15.90;53.80;;;;;;5014339;28;20444;-72
2022/04/17 13:58:17;;;;;;;;;;;15.70;54.00;;;;;;5009747;28;20294;-73
2022/04/17 14:00:43;;;;;;;;;;;15.70;55.90;;;;;;4993961;28;19948;-73
2022/04/17 14:03:15;;;;;;;;;;;16.00;54.40;;;;;;5012908;28;20547;-73
2022/04/17 14:05:47;;;;;;;;;;;16.10;54.20;;;;;;5014106;28;19926;-73
2022/04/17 14:08:20;;;;;;;;;;;16.30;55.30;;;;;;5014416;28;20475;-73
2022/04/17 14:10:51;;;;;;;;;;;16.50;52.00;;;;;;4997594;28;20535;-73
2022/04/17 14:13:23;;;;;;;;;;;16.70;53.20;;;;;;5007508;28;19926;-73
2022/04/17 14:15:49;;;;;;;;;;;16.60;52.30;;;;;;5013844;28;19929;-73
2022/04/17 14:18:21;;;;;;;;;;;16.60;53.30;;;;;;5009514;28;19925;-73
2022/04/17 14:20:53;;;;;;;;;;;16.50;53.20;;;;;;4997534;28;19925;-73
2022/04/17 14:23:24;;;;;;;;;;;16.80;53.30;;;;;;4996099;28;19932;-73
2022/04/17 14:25:57;;;;;;;;;;;17.20;53.00;;;;;;5012823;28;19933;-73
2022/04/17 14:28:29;;;;;;;;;;;17.20;52.40;;;;;;5014043;28;19929;-73
2022/04/17 14:31:03;;;;;;;;;;;17.20;53.40;;;;;;5012596;28;20353;-73
2022/04/17 14:33:34;;;;;;;;;;;17.10;53.20;;;;;;5010569;28;19930;-73
2022/04/17 14:36:06;;;;;;;;;;;17.00;54.00;;;;;;5013016;28;20025;-73
2022/04/17 14:38:38;;;;;;;;;;;16.90;50.70;;;;;;5012076;28;20024;-73
2022/04/17 14:41:10;;;;;;;;;;;17.00;50.70;;;;;;5014083;28;19925;-73
2022/04/17 14:43:42;;;;;;;;;;;17.40;51.10;;;;;;5010680;28;20390;-73
2022/04/17 14:46:13;;;;;;;;;;;17.70;49.80;;;;;;5013970;28;19932;-73
2022/04/17 14:48:45;;;;;;;;;;;17.90;49.30;;;;;;5027272;28;19933;-73
2022/04/17 14:51:17;;;;;;;;;;;18.30;49.00;;;;;;5008360;28;19932;-73
2022/04/17 14:53:45;;;;;;;;;;;18.50;48.20;;;;;;5011395;28;19972;-73
2022/04/17 14:56:18;;;;;;;;;;;18.70;47.60;;;;;;5011289;28;19926;-73
2022/04/17 14:58:49;;;;;;;;;;;18.80;47.90;;;;;;5013007;28;19932;-73
2022/04/17 15:01:21;;;;;;;;;;;19.00;47.10;;;;;;5028326;28;20322;-73
2022/04/17 15:03:53;;;;;;;;;;;19.20;47.30;;;;;;5011819;28;20352;-73
2022/04/17 15:06:25;;;;;;;;;;;19.50;46.30;;;;;;5008521;28;19933;-73
2022/04/17 15:08:56;;;;;;;;;;;19.60;45.90;;;;;;5010142;28;19936;-73
2022/04/17 15:11:28;;;;;;;;;;;19.90;45.20;;;;;;5011425;28;20362;-73
2022/04/17 15:13:59;;;;;;;;;;;20.10;44.80;;;;;;5010614;28;19930;-73